Flight Track Log - Related Links

Times and Time Zones

All times are in EDT time to prevent confusion due to time zone crossing. See the AAY876 flight status page for this flight to view local times or setup timezone preferences in your user account.

Time Position Orientation Groundspeed Altitude Reporting Facility
EDT Latitude Longitude Course Direction KTS MPH feet Rate Location/Type
Thu 02:55:07 PM 27.9000 -82.6833 199° South 181 208 600  Level Tampa TRACON
Thu 02:56:49 PM 27.8167 -82.7167 199° South 221 254 3,800 1,639 Climbing Tampa TRACON
Thu 02:58:21 PM 27.8872 -82.7481 339° North 242 278 5,900 2,026 Climbing Miami Center
Thu 02:59:23 PM 27.9828 -82.7497 359° North 280 322 9,000 2,000 Climbing Miami Center
Thu 03:01:15 PM 28.1436 -82.7797 351° North 302 348 11,700 1,674 Climbing Jacksonville Center
Thu 03:02:15 PM 28.2500 -82.7983 351° North 348 400 13,800 1,950 Climbing Jacksonville Center
Thu 03:03:15 PM 28.3564 -82.8172 351° North 379 436 15,600 1,800 Climbing Jacksonville Center
Thu 03:04:15 PM 28.4692 -82.8406 350° North 396 456 17,400 1,650 Climbing Jacksonville Center
Thu 03:05:15 PM 28.5881 -82.8619 351° North 416 479 18,900 1,450 Climbing Jacksonville Center
Thu 03:06:15 PM 28.7031 -82.8808 352° North 422 486 20,300 1,450 Climbing Jacksonville Center
Thu 03:07:15 PM 28.8239 -82.9044 350° North 429 494 21,800 1,400 Climbing Jacksonville Center
Thu 03:08:15 PM 28.9472 -82.9258 351° North 434 499 23,100 1,250 Climbing Jacksonville Center
Thu 03:09:15 PM 29.0703 -82.9497 350° North 439 505 24,300 1,350 Climbing Jacksonville Center
Thu 03:10:15 PM 29.1975 -82.9733 351° North 445 512 25,800 1,550 Climbing Jacksonville Center
Thu 03:11:15 PM 29.3208 -82.9950 351° North 445 512 27,400 1,500 Climbing Jacksonville Center
Thu 03:12:15 PM 29.4417 -83.0189 350° North 445 512 28,800 1,100 Climbing Jacksonville Center
Thu 03:13:15 PM 29.5544 -83.0383 351° North 453 521 29,600 950 Climbing Jacksonville Center
Thu 03:14:15 PM 29.6692 -83.0814 342° North 443 510 30,700 1,050 Climbing Jacksonville Center
Thu 03:15:15 PM 29.7778 -83.1319 338° Northwest 425 489 31,700 600 Climbing Jacksonville Center
Thu 03:16:15 PM 29.8842 -83.1825 338° Northwest 414 476 31,900 100 Climbing Jacksonville Center
Thu 03:17:15 PM 29.9906 -83.2331 338° Northwest 414 476 31,900  Level Jacksonville Center
Thu 03:19:15 PM 30.2072 -83.3300 339° North 414 476 31,900  Level Jacksonville Center
Thu 03:20:15 PM 30.3158 -83.3811 338° Northwest 414 476 31,900  Level Jacksonville Center
Thu 03:21:15 PM 30.4242 -83.4322 338° Northwest 414 476 31,900  Level Jacksonville Center
Thu 03:22:15 PM 30.5325 -83.4833 338° Northwest 414 476 31,900  Level Jacksonville Center
Thu 03:23:15 PM 30.6408 -83.5347 338° Northwest 414 476 31,900 50 Level Jacksonville Center
Thu 03:24:15 PM 30.7447 -83.5886 336° Northwest 414 476 32,000 50 Climbing Jacksonville Center
Thu 03:25:15 PM 30.8553 -83.6378 339° North 414 476 32,000  Level Jacksonville Center
Thu 03:26:15 PM 30.9656 -83.6897 338° Northwest 414 476 32,000  Level Jacksonville Center
Thu 03:27:15 PM 31.0739 -83.7414 338° Northwest 414 476 32,000  Level Jacksonville Center
Thu 03:28:15 PM 31.1778 -83.7958 336° Northwest 409 471 32,000  Level Jacksonville Center
Thu 03:30:32 PM 31.4356 -83.9197 338° Northwest 428 493 32,000  Level Atlanta Center
Thu 03:33:32 PM 31.7694 -84.0144 349° North 418 481 32,000  Level Atlanta Center
Thu 03:34:32 PM 31.8844 -84.0364 351° North 423 487 32,000  Level Atlanta Center
Thu 03:36:32 PM 32.1161 -84.0903 340° North 423 487 32,000  Level Atlanta Center
Thu 03:37:32 PM 32.2350 -84.1150 350° North 428 493 32,000  Level Atlanta Center
Thu 03:38:32 PM 32.3497 -84.1422 349° North 428 493 32,000  Level Atlanta Center
Thu 03:39:00 PM 32.4081 -84.1497 349° North  Level FlightAware Approximate
Thu 03:39:32 PM 32.4644 -84.1692 349° North 428 493 32,000  Level Atlanta Center
Thu 03:40:32 PM 32.5814 -84.1942 350° North 428 493 32,000  Level Atlanta Center
Thu 03:41:32 PM 32.6961 -84.2189 350° North 428 493 32,000  Level Atlanta Center
Thu 03:42:32 PM 32.8214 -84.2489 349° North 428 493 32,000  Level Atlanta Center
Thu 03:45:32 PM 33.1719 -84.3317 350° North 428 493 32,000  Level Atlanta Center
Thu 03:46:32 PM 33.2867 -84.3569 350° North 428 493 32,000  Level Atlanta Center
Thu 03:47:32 PM 33.3889 -84.3797 349° North 428 493 32,000  Level Atlanta Center
Thu 03:48:32 PM 33.5078 -84.4100 348° North 428 493 32,000  Level Atlanta Center
Thu 03:49:32 PM 33.6183 -84.4331 350° North 422 486 32,000  Level Atlanta Center
Thu 03:51:32 PM 33.8644 -84.4942 350° North 429 494 32,000  Level Atlanta Center
Thu 03:52:32 PM 33.9853 -84.5197 350° North 429 494 32,000  Level Atlanta Center
Thu 03:53:32 PM 34.0978 -84.5531 346° North 429 494 32,000  Level Atlanta Center
Thu 03:54:32 PM 34.2167 -84.5789 350° North 429 494 32,000  Level Atlanta Center
Thu 03:55:32 PM 34.3231 -84.6022 350° North 429 494 32,000  Level Atlanta Center
Thu 03:56:32 PM 34.4378 -84.6306 348° North 423 487 32,000  Level Atlanta Center
Thu 03:57:32 PM 34.5503 -84.6567 349° North 418 481 32,000 -50 Level Atlanta Center
Thu 03:58:32 PM 34.6733 -84.6903 347° North 418 481 31,900  Descending Atlanta Center
Thu 03:59:32 PM 34.7881 -84.7167 349° North 418 481 32,000 33 Climbing Atlanta Center
Thu 04:01:32 PM 35.0192 -84.7767 348° North 413 475 32,000  Level Atlanta Center
Thu 04:04:32 PM 35.3650 -84.8639 349° North 413 475 32,000  Level Atlanta Center
Thu 04:05:32 PM 35.4775 -84.8931 348° North 418 481 32,000  Level Atlanta Center
Thu 04:07:32 PM 35.6961 -84.9492 348° North 418 481 32,000  Level Atlanta Center
Thu 04:08:32 PM 35.8128 -84.9758 349° North 418 481 32,000  Level Atlanta Center
Thu 04:09:04 PM 35.8811 -84.9928 349° North 424 488 32,000  Level Indianapolis Center
Thu 04:10:00 PM 35.9772 -85.0148 349° North  Level FlightAware Approximate
Thu 04:10:06 PM 35.9983 -85.0236 348° North 424 488 32,000  Level Indianapolis Center
Thu 04:11:08 PM 36.1133 -85.0528 348° North 423 487 32,000  Level Indianapolis Center
Thu 04:12:10 PM 36.2278 -85.0828 348° North 422 486 32,000 48 Level Indianapolis Center
Thu 04:13:12 PM 36.3425 -85.1114 349° North 421 484 32,100 532 Climbing Indianapolis Center
Thu 04:14:14 PM 36.4772 -85.1469 348° North 416 479 33,100 458 Climbing Indianapolis Center
Thu 04:17:21 PM 36.8214 -85.2356 348° North 419 482 34,000 174 Climbing Indianapolis Center
Thu 04:19:25 PM 37.0283 -85.3478 332° Northwest 406 467 34,000  Level Indianapolis Center
Thu 04:20:27 PM 37.1464 -85.4303 331° Northwest 406 467 34,000  Level Indianapolis Center
Thu 04:22:31 PM 37.3378 -85.5567 332° Northwest 405 466 34,000  Level Indianapolis Center
Thu 04:23:00 PM 37.4180 -85.3826 348° North  Level FlightAware Approximate
Thu 04:23:33 PM 37.4372 -85.6236 332° Northwest 404 465 34,000  Level Indianapolis Center
Thu 04:24:36 PM 37.5350 -85.6908 331° Northwest 404 465 34,000  Level Indianapolis Center
Thu 04:28:44 PM 37.9525 -85.9736 331° Northwest 404 465 34,000  Level Indianapolis Center
Thu 04:30:00 PM 38.0728 -86.0586 333° Northwest  Level FlightAware Approximate
Thu 04:30:48 PM 38.1489 -86.1097 333° Northwest 403 464 34,000  Level Indianapolis Center
Thu 04:31:50 PM 38.2683 -86.1919 332° Northwest 404 465 34,000  Level Indianapolis Center
Thu 04:32:52 PM 38.3669 -86.2597 332° Northwest 404 465 34,000  Level Indianapolis Center
Thu 04:33:00 PM 38.3439 -86.2450 332° Northwest  Level Estimated
Thu 04:33:54 PM 38.4661 -86.3286 331° Northwest 404 465 34,000  Level Indianapolis Center
Thu 04:34:00 PM 38.4400 -86.3119 331° Northwest  Level Estimated
Thu 04:34:57 PM 38.5653 -86.3978 331° Northwest 404 465 34,000  Level Indianapolis Center
Thu 04:35:59 PM 38.6642 -86.4681 331° Northwest 405 466 34,000  Level Indianapolis Center
Thu 04:37:01 PM 38.7631 -86.5375 331° Northwest 405 466 34,000  Level Indianapolis Center
Thu 04:38:03 PM 38.8811 -86.6200 331° Northwest 405 466 34,000  Level Indianapolis Center
Thu 04:40:07 PM 39.0767 -86.7583 331° Northwest 404 465 34,000  Level Indianapolis Center
Thu 04:41:09 PM 39.1839 -86.8350 331° Northwest 402 463 34,000  Level Indianapolis Center
Thu 04:42:11 PM 39.2811 -86.9039 331° Northwest 401 461 34,000  Level Indianapolis Center
Thu 04:43:13 PM 39.3781 -86.9731 331° Northwest 400 460 34,000  Level Indianapolis Center
Thu 04:44:15 PM 39.4758 -87.0444 331° Northwest 400 460 34,000  Level Indianapolis Center
Thu 04:45:48 PM 39.6317 -87.1567 331° Northwest 400 460 34,000  Level Chicago Center
Thu 04:46:19 PM 39.6714 -87.1850 331° Northwest 400 460 34,000  Level Indianapolis Center
Thu 04:47:53 PM 39.8258 -87.2986 331° Northwest 399 459 34,000  Level Chicago Center
Thu 04:48:24 PM 39.8844 -87.3392 332° Northwest 399 459 34,000  Level Indianapolis Center
Thu 04:49:57 PM 40.0186 -87.4394 330° Northwest 398 458 34,000  Level Chicago Center
Thu 04:51:30 PM 40.1739 -87.5511 331° Northwest 398 458 34,000  Level Indianapolis Center
Thu 04:52:01 PM 40.2239 -87.5911 329° Northwest 396 456 34,000  Level Chicago Center
Thu 04:53:03 PM 40.3194 -87.6597 331° Northwest 393 452 34,000  Level Chicago Center
Thu 04:54:05 PM 40.4139 -87.7306 330° Northwest 393 452 34,000  Level Chicago Center
Thu 04:55:38 PM 40.5733 -87.8472 331° Northwest 394 453 34,000  Level Indianapolis Center
Thu 04:56:10 PM 40.6244 -87.8875 329° Northwest 396 456 34,000  Level Chicago Center
Thu 04:57:43 PM 40.7650 -87.9903 331° Northwest 395 455 34,000  Level Indianapolis Center
Thu 04:58:45 PM 40.8569 -88.0636 329° Northwest 393 452 34,000 -129 Level Indianapolis Center
Thu 04:59:16 PM 40.8975 -88.1158 316° Northwest 379 436 33,800 -1,290 Descending Chicago Center
Thu 05:00:18 PM 40.9678 -88.2192 312° West 377 434 32,000 -2,000 Descending Chicago Center
Thu 05:02:22 PM 41.1289 -88.4503 313° West 385 443 27,600 -2,000 Descending Chicago Center
Thu 05:03:24 PM 41.2025 -88.5586 312° West 390 449 25,800 -1,584 Descending Chicago Center
Thu 05:04:27 PM 41.2786 -88.6689 313° West 398 458 24,300 -1,440 Descending Chicago Center
Thu 05:05:29 PM 41.3519 -88.7764 312° West 397 457 22,800 -1,645 Descending Chicago Center
Thu 05:06:31 PM 41.4231 -88.8806 312° West 386 444 20,900 -1,484 Descending Chicago Center
Thu 05:08:35 PM 41.5672 -89.0956 313° West 346 398 18,200 -1,839 Descending Chicago Center
Thu 05:09:37 PM 41.6297 -89.1878 312° West 337 388 15,200 -2,468 Descending Chicago Center
Thu 05:10:39 PM 41.6942 -89.2783 314° West 337 388 13,100 -1,797 Descending Chicago Center
Thu 05:12:44 PM 41.8667 -89.2294 17° North 313 360 9,600 -1,701 Descending Chicago Center
Thu 05:13:46 PM 41.9336 -89.1758 31° Northeast 288 331 7,800 -2,129 Descending Chicago Center
Thu 05:14:48 PM 42.0086 -89.1267 26° Northeast 257 296 5,200 -1,984 Descending Chicago Center
Thu 05:15:50 PM 42.0603 -89.1056 17° North 199 229 3,700 -1,452 Descending Chicago Center
Thu 05:17:00 PM 42.1833 -89.0833 26° Northeast  Level FlightAware Approximate
Thu 05:24:00 PM 42.1954 -89.0972 26° Northeast  Level Estimated
Thu 05:25:00 PM 42.1954 -89.0972 26° Northeast  Level Estimated

Login

Don't have an account? Register now (free) for customized features, flight alerts, and more!